sensor_id;sensor_type;location;lat;lon;timestamp;temperature;humidity
71367;DHT22;60030;52.274;8.040;2023-03-14T00:00:05;13.30;99.90
71367;DHT22;60030;52.274;8.040;2023-03-14T00:02:36;13.20;99.90
71367;DHT22;60030;52.274;8.040;2023-03-14T00:05:04;13.10;99.90
71367;DHT22;60030;52.274;8.040;2023-03-14T00:07:33;13.30;99.90
71367;DHT22;60030;52.274;8.040;2023-03-14T00:10:02;13.30;99.90
71367;DHT22;60030;52.274;8.040;2023-03-14T00:12:30;13.20;99.90
71367;DHT22;60030;52.274;8.040;2023-03-14T00:14:58;13.20;99.90
71367;DHT22;60030;52.274;8.040;2023-03-14T00:17:29;13.40;99.90
71367;DHT22;60030;52.274;8.040;2023-03-14T00:19:57;13.30;99.90
71367;DHT22;60030;52.274;8.040;2023-03-14T00:22:30;13.30;99.90
71367;DHT22;60030;52.274;8.040;2023-03-14T00:24:57;13.40;99.90
71367;DHT22;60030;52.274;8.040;2023-03-14T00:27:24;13.20;99.90
71367;DHT22;60030;52.274;8.040;2023-03-14T00:29:51;13.20;99.90
71367;DHT22;60030;52.274;8.040;2023-03-14T00:32:18;13.20;99.90
71367;DHT22;60030;52.274;8.040;2023-03-14T00:34:45;13.10;99.90
71367;DHT22;60030;52.274;8.040;2023-03-14T00:37:14;13.00;99.90
71367;DHT22;60030;52.274;8.040;2023-03-14T00:39:41;13.10;99.90
71367;DHT22;60030;52.274;8.040;2023-03-14T00:42:08;12.90;99.90
71367;DHT22;60030;52.274;8.040;2023-03-14T00:44:35;13.00;99.90
71367;DHT22;60030;52.274;8.040;2023-03-14T00:47:06;12.90;99.90
71367;DHT22;60030;52.274;8.040;2023-03-14T00:49:33;12.90;99.90
71367;DHT22;60030;52.274;8.040;2023-03-14T00:52:00;12.90;99.90
71367;DHT22;60030;52.274;8.040;2023-03-14T00:54:29;12.80;99.90
71367;DHT22;60030;52.274;8.040;2023-03-14T00:56:56;12.90;99.90
71367;DHT22;60030;52.274;8.040;2023-03-14T00:59:23;12.90;99.90
71367;DHT22;60030;52.274;8.040;2023-03-14T01:01:50;12.80;99.90
71367;DHT22;60030;52.274;8.040;2023-03-14T01:04:18;12.70;99.90
71367;DHT22;60030;52.274;8.040;2023-03-14T01:06:45;12.80;99.90
71367;DHT22;60030;52.274;8.040;2023-03-14T01:09:12;12.70;99.90
71367;DHT22;60030;52.274;8.040;2023-03-14T01:11:42;12.70;99.90
71367;DHT22;60030;52.274;8.040;2023-03-14T01:14:12;12.70;99.90
71367;DHT22;60030;52.274;8.040;2023-03-14T01:16:39;12.60;99.90
71367;DHT22;60030;52.274;8.040;2023-03-14T01:19:06;12.60;99.90
71367;DHT22;60030;52.274;8.040;2023-03-14T01:21:35;12.70;99.90
71367;DHT22;60030;52.274;8.040;2023-03-14T01:24:04;12.60;99.90
71367;DHT22;60030;52.274;8.040;2023-03-14T01:26:34;12.60;99.90
71367;DHT22;60030;52.274;8.040;2023-03-14T01:29:04;12.60;99.90
71367;DHT22;60030;52.274;8.040;2023-03-14T01:31:34;12.70;99.90
71367;DHT22;60030;52.274;8.040;2023-03-14T01:34:01;12.60;99.90
71367;DHT22;60030;52.274;8.040;2023-03-14T01:36:28;12.60;99.90
71367;DHT22;60030;52.274;8.040;2023-03-14T01:38:56;12.60;99.90
71367;DHT22;60030;52.274;8.040;2023-03-14T01:41:25;12.60;99.90
71367;DHT22;60030;52.274;8.040;2023-03-14T01:43:54;12.70;99.90
71367;DHT22;60030;52.274;8.040;2023-03-14T01:46:38;12.70;99.90
71367;DHT22;60030;52.274;8.040;2023-03-14T01:49:13;12.70;99.90
71367;DHT22;60030;52.274;8.040;2023-03-14T01:51:48;12.60;99.90
71367;DHT22;60030;52.274;8.040;2023-03-14T01:54:19;12.60;99.90
71367;DHT22;60030;52.274;8.040;2023-03-14T01:56:51;12.60;99.90
71367;DHT22;60030;52.274;8.040;2023-03-14T01:59:20;12.60;99.90
71367;DHT22;60030;52.274;8.040;2023-03-14T02:01:50;12.70;99.90
71367;DHT22;60030;52.274;8.040;2023-03-14T02:04:18;12.70;99.90
71367;DHT22;60030;52.274;8.040;2023-03-14T02:06:54;12.70;99.90
71367;DHT22;60030;52.274;8.040;2023-03-14T02:09:26;12.70;99.90
71367;DHT22;60030;52.274;8.040;2023-03-14T02:11:54;12.70;99.90
71367;DHT22;60030;52.274;8.040;2023-03-14T02:14:42;12.60;99.90
71367;DHT22;60030;52.274;8.040;2023-03-14T02:17:28;12.50;99.90
71367;DHT22;60030;52.274;8.040;2023-03-14T02:20:24;12.60;99.90
71367;DHT22;60030;52.274;8.040;2023-03-14T02:22:55;12.60;99.90
71367;DHT22;60030;52.274;8.040;2023-03-14T02:25:31;12.60;99.90
71367;DHT22;60030;52.274;8.040;2023-03-14T02:28:02;12.60;99.90
71367;DHT22;60030;52.274;8.040;2023-03-14T02:30:31;12.50;99.90
71367;DHT22;60030;52.274;8.040;2023-03-14T02:33:01;12.40;99.90
71367;DHT22;60030;52.274;8.040;2023-03-14T02:35:32;12.30;99.90
71367;DHT22;60030;52.274;8.040;2023-03-14T02:38:05;12.40;99.90
71367;DHT22;60030;52.274;8.040;2023-03-14T02:40:37;12.40;99.90
71367;DHT22;60030;52.274;8.040;2023-03-14T02:43:06;12.20;99.90
71367;DHT22;60030;52.274;8.040;2023-03-14T02:45:39;12.10;99.90
71367;DHT22;60030;52.274;8.040;2023-03-14T02:48:11;12.20;99.90
71367;DHT22;60030;52.274;8.040;2023-03-14T02:50:41;12.00;99.90
71367;DHT22;60030;52.274;8.040;2023-03-14T02:53:08;12.00;99.90
71367;DHT22;60030;52.274;8.040;2023-03-14T02:55:36;12.00;99.90
71367;DHT22;60030;52.274;8.040;2023-03-14T02:58:11;12.10;99.90
71367;DHT22;60030;52.274;8.040;2023-03-14T03:00:38;12.10;99.90
71367;DHT22;60030;52.274;8.040;2023-03-14T03:03:07;12.10;99.90
71367;DHT22;60030;52.274;8.040;2023-03-14T03:05:34;12.00;99.90
71367;DHT22;60030;52.274;8.040;2023-03-14T03:08:02;12.00;99.90
71367;DHT22;60030;52.274;8.040;2023-03-14T03:10:31;11.90;99.90
71367;DHT22;60030;52.274;8.040;2023-03-14T03:12:58;11.70;99.90
71367;DHT22;60030;52.274;8.040;2023-03-14T03:15:29;11.80;99.90
71367;DHT22;60030;52.274;8.040;2023-03-14T03:17:56;11.80;99.90
71367;DHT22;60030;52.274;8.040;2023-03-14T03:20:24;11.70;99.90
71367;DHT22;60030;52.274;8.040;2023-03-14T03:22:51;11.80;99.90
71367;DHT22;60030;52.274;8.040;2023-03-14T03:25:18;11.70;99.90
71367;DHT22;60030;52.274;8.040;2023-03-14T03:27:45;11.60;99.90
71367;DHT22;60030;52.274;8.040;2023-03-14T03:30:16;11.40;99.90
71367;DHT22;60030;52.274;8.040;2023-03-14T03:32:45;11.40;99.90
71367;DHT22;60030;52.274;8.040;2023-03-14T03:35:12;11.40;99.90
71367;DHT22;60030;52.274;8.040;2023-03-14T03:37:41;11.40;99.90
71367;DHT22;60030;52.274;8.040;2023-03-14T03:40:09;11.30;99.90
71367;DHT22;60030;52.274;8.040;2023-03-14T03:42:36;11.30;99.90
71367;DHT22;60030;52.274;8.040;2023-03-14T03:45:08;11.30;99.90
71367;DHT22;60030;52.274;8.040;2023-03-14T03:47:40;11.20;99.90
71367;DHT22;60030;52.274;8.040;2023-03-14T03:50:09;11.00;99.90
71367;DHT22;60030;52.274;8.040;2023-03-14T03:52:37;11.10;99.90
71367;DHT22;60030;52.274;8.040;2023-03-14T03:55:04;11.20;99.90
71367;DHT22;60030;52.274;8.040;2023-03-14T03:57:31;11.20;99.90
71367;DHT22;60030;52.274;8.040;2023-03-14T03:59:58;11.10;99.90
71367;DHT22;60030;52.274;8.040;2023-03-14T04:02:27;11.20;99.90
71367;DHT22;60030;52.274;8.040;2023-03-14T04:04:54;11.10;99.90
71367;DHT22;60030;52.274;8.040;2023-03-14T04:07:23;11.20;99.90
71367;DHT22;60030;52.274;8.040;2023-03-14T04:09:50;11.10;99.90
71367;DHT22;60030;52.274;8.040;2023-03-14T04:12:34;11.10;99.90
71367;DHT22;60030;52.274;8.040;2023-03-14T04:15:07;11.10;99.90
71367;DHT22;60030;52.274;8.040;2023-03-14T04:17:36;11.00;99.90
71367;DHT22;60030;52.274;8.040;2023-03-14T04:20:04;11.10;99.90
71367;DHT22;60030;52.274;8.040;2023-03-14T04:22:38;11.20;99.90
71367;DHT22;60030;52.274;8.040;2023-03-14T04:25:06;11.30;99.90
71367;DHT22;60030;52.274;8.040;2023-03-14T04:27:38;11.20;99.90
71367;DHT22;60030;52.274;8.040;2023-03-14T04:30:11;11.10;99.90
71367;DHT22;60030;52.274;8.040;2023-03-14T04:32:50;11.20;99.90
71367;DHT22;60030;52.274;8.040;2023-03-14T04:35:19;11.10;99.90
71367;DHT22;60030;52.274;8.040;2023-03-14T04:37:48;11.10;99.90
71367;DHT22;60030;52.274;8.040;2023-03-14T04:40:19;11.00;99.90
71367;DHT22;60030;52.274;8.040;2023-03-14T04:42:47;11.00;99.90
71367;DHT22;60030;52.274;8.040;2023-03-14T04:45:15;11.00;99.90
71367;DHT22;60030;52.274;8.040;2023-03-14T04:47:43;10.90;99.90
71367;DHT22;60030;52.274;8.040;2023-03-14T04:50:14;10.90;99.90
71367;DHT22;60030;52.274;8.040;2023-03-14T04:52:41;10.90;99.90
71367;DHT22;60030;52.274;8.040;2023-03-14T04:55:10;10.90;99.90
71367;DHT22;60030;52.274;8.040;2023-03-14T04:57:37;10.90;99.90
71367;DHT22;60030;52.274;8.040;2023-03-14T05:00:09;10.90;99.90
71367;DHT22;60030;52.274;8.040;2023-03-14T05:03:03;10.90;99.90
71367;DHT22;60030;52.274;8.040;2023-03-14T05:05:41;11.00;99.90
71367;DHT22;60030;52.274;8.040;2023-03-14T05:08:27;11.00;99.90
71367;DHT22;60030;52.274;8.040;2023-03-14T05:11:18;10.90;99.90
71367;DHT22;60030;52.274;8.040;2023-03-14T05:14:03;10.90;99.90
71367;DHT22;60030;52.274;8.040;2023-03-14T05:16:54;10.90;99.90
71367;DHT22;60030;52.274;8.040;2023-03-14T05:19:36;10.90;99.90
71367;DHT22;60030;52.274;8.040;2023-03-14T05:22:12;11.00;99.90
71367;DHT22;60030;52.274;8.040;2023-03-14T05:24:58;11.00;99.90
71367;DHT22;60030;52.274;8.040;2023-03-14T05:27:38;10.90;99.90
71367;DHT22;60030;52.274;8.040;2023-03-14T05:30:24;11.00;99.90
71367;DHT22;60030;52.274;8.040;2023-03-14T05:33:04;11.00;99.90
71367;DHT22;60030;52.274;8.040;2023-03-14T05:36:01;11.10;99.90
71367;DHT22;60030;52.274;8.040;2023-03-14T05:38:43;11.20;99.90
71367;DHT22;60030;52.274;8.040;2023-03-14T05:41:27;11.10;99.90
71367;DHT22;60030;52.274;8.040;2023-03-14T05:43:56;11.10;99.90
71367;DHT22;60030;52.274;8.040;2023-03-14T05:46:41;11.10;99.90
71367;DHT22;60030;52.274;8.040;2023-03-14T05:49:26;11.10;99.90
71367;DHT22;60030;52.274;8.040;2023-03-14T05:52:11;11.00;99.90
71367;DHT22;60030;52.274;8.040;2023-03-14T05:55:08;11.10;99.90
71367;DHT22;60030;52.274;8.040;2023-03-14T05:57:58;11.20;99.90
71367;DHT22;60030;52.274;8.040;2023-03-14T06:00:43;11.10;99.90
71367;DHT22;60030;52.274;8.040;2023-03-14T06:03:23;11.10;99.90
71367;DHT22;60030;52.274;8.040;2023-03-14T06:05:51;11.10;99.90
71367;DHT22;60030;52.274;8.040;2023-03-14T06:08:19;11.00;99.90
71367;DHT22;60030;52.274;8.040;2023-03-14T06:10:46;11.00;99.90
71367;DHT22;60030;52.274;8.040;2023-03-14T06:13:13;11.00;99.90
71367;DHT22;60030;52.274;8.040;2023-03-14T06:15:43;11.00;99.90
71367;DHT22;60030;52.274;8.040;2023-03-14T06:18:11;11.10;99.90
71367;DHT22;60030;52.274;8.040;2023-03-14T06:20:40;11.10;99.90
71367;DHT22;60030;52.274;8.040;2023-03-14T06:23:10;11.10;99.90
71367;DHT22;60030;52.274;8.040;2023-03-14T06:25:37;11.10;99.90
71367;DHT22;60030;52.274;8.040;2023-03-14T06:28:05;11.00;99.90
71367;DHT22;60030;52.274;8.040;2023-03-14T06:30:32;11.10;99.90
71367;DHT22;60030;52.274;8.040;2023-03-14T06:33:00;11.00;99.90
71367;DHT22;60030;52.274;8.040;2023-03-14T06:35:28;11.10;99.90
71367;DHT22;60030;52.274;8.040;2023-03-14T06:37:55;11.20;99.90
71367;DHT22;60030;52.274;8.040;2023-03-14T06:40:22;11.20;99.90
71367;DHT22;60030;52.274;8.040;2023-03-14T06:42:54;11.30;99.90
71367;DHT22;60030;52.274;8.040;2023-03-14T06:45:23;11.40;99.90
71367;DHT22;60030;52.274;8.040;2023-03-14T06:47:51;11.50;99.90
71367;DHT22;60030;52.274;8.040;2023-03-14T06:50:23;11.50;99.90
71367;DHT22;60030;52.274;8.040;2023-03-14T06:52:50;11.50;99.90
71367;DHT22;60030;52.274;8.040;2023-03-14T06:55:21;11.50;99.90
71367;DHT22;60030;52.274;8.040;2023-03-14T06:57:48;11.60;99.90
71367;DHT22;60030;52.274;8.040;2023-03-14T07:00:17;11.50;99.90
71367;DHT22;60030;52.274;8.040;2023-03-14T07:02:44;11.50;99.90
71367;DHT22;60030;52.274;8.040;2023-03-14T07:05:24;11.40;99.90
71367;DHT22;60030;52.274;8.040;2023-03-14T07:07:52;11.40;99.90
71367;DHT22;60030;52.274;8.040;2023-03-14T07:10:19;11.20;99.90
71367;DHT22;60030;52.274;8.040;2023-03-14T07:12:46;11.10;99.90
71367;DHT22;60030;52.274;8.040;2023-03-14T07:15:13;11.30;99.90
71367;DHT22;60030;52.274;8.040;2023-03-14T07:17:40;11.10;99.90
71367;DHT22;60030;52.274;8.040;2023-03-14T07:20:09;11.10;99.90
71367;DHT22;60030;52.274;8.040;2023-03-14T07:22:38;11.10;99.90
71367;DHT22;60030;52.274;8.040;2023-03-14T07:25:06;11.20;99.90
71367;DHT22;60030;52.274;8.040;2023-03-14T07:27:36;11.50;99.90
71367;DHT22;60030;52.274;8.040;2023-03-14T07:30:03;11.40;99.90
71367;DHT22;60030;52.274;8.040;2023-03-14T07:32:31;11.50;99.90
71367;DHT22;60030;52.274;8.040;2023-03-14T07:34:58;11.40;99.90
71367;DHT22;60030;52.274;8.040;2023-03-14T07:37:25;11.60;99.90
71367;DHT22;60030;52.274;8.040;2023-03-14T07:39:54;11.60;99.90
71367;DHT22;60030;52.274;8.040;2023-03-14T07:42:24;11.60;99.90
71367;DHT22;60030;52.274;8.040;2023-03-14T07:45:10;11.60;99.90
71367;DHT22;60030;52.274;8.040;2023-03-14T07:47:37;11.50;99.90
71367;DHT22;60030;52.274;8.040;2023-03-14T07:50:06;11.40;99.90
71367;DHT22;60030;52.274;8.040;2023-03-14T07:52:33;11.40;99.90
71367;DHT22;60030;52.274;8.040;2023-03-14T07:55:01;11.30;99.90
71367;DHT22;60030;52.274;8.040;2023-03-14T07:57:28;11.10;99.90
71367;DHT22;60030;52.274;8.040;2023-03-14T07:59:55;11.20;99.90
71367;DHT22;60030;52.274;8.040;2023-03-14T08:02:22;11.20;99.90
71367;DHT22;60030;52.274;8.040;2023-03-14T08:04:50;11.00;99.90
71367;DHT22;60030;52.274;8.040;2023-03-14T08:07:17;11.10;99.90
71367;DHT22;60030;52.274;8.040;2023-03-14T08:09:44;11.30;99.90
71367;DHT22;60030;52.274;8.040;2023-03-14T08:12:12;11.50;99.90
71367;DHT22;60030;52.274;8.040;2023-03-14T08:14:40;11.40;99.90
71367;DHT22;60030;52.274;8.040;2023-03-14T08:17:07;11.70;99.90
71367;DHT22;60030;52.274;8.040;2023-03-14T08:19:34;11.80;99.90
71367;DHT22;60030;52.274;8.040;2023-03-14T08:22:02;11.80;99.90
71367;DHT22;60030;52.274;8.040;2023-03-14T08:24:29;11.60;99.90
71367;DHT22;60030;52.274;8.040;2023-03-14T08:26:56;11.40;99.90
71367;DHT22;60030;52.274;8.040;2023-03-14T08:29:25;11.60;99.90
71367;DHT22;60030;52.274;8.040;2023-03-14T08:31:52;11.70;99.90
71367;DHT22;60030;52.274;8.040;2023-03-14T08:34:20;11.70;99.90
71367;DHT22;60030;52.274;8.040;2023-03-14T08:36:53;11.80;99.90
71367;DHT22;60030;52.274;8.040;2023-03-14T08:39:22;11.70;99.90
71367;DHT22;60030;52.274;8.040;2023-03-14T08:41:50;11.60;99.90
71367;DHT22;60030;52.274;8.040;2023-03-14T08:44:17;11.70;99.90
71367;DHT22;60030;52.274;8.040;2023-03-14T08:46:45;11.70;99.90
71367;DHT22;60030;52.274;8.040;2023-03-14T08:49:13;11.80;99.90
71367;DHT22;60030;52.274;8.040;2023-03-14T08:51:40;11.80;99.90
71367;DHT22;60030;52.274;8.040;2023-03-14T08:54:10;11.60;99.90
71367;DHT22;60030;52.274;8.040;2023-03-14T08:56:37;11.70;99.90
71367;DHT22;60030;52.274;8.040;2023-03-14T08:59:04;11.50;99.90
71367;DHT22;60030;52.274;8.040;2023-03-14T09:01:32;11.70;99.90
71367;DHT22;60030;52.274;8.040;2023-03-14T09:04:00;11.70;99.90
71367;DHT22;60030;52.274;8.040;2023-03-14T09:06:32;11.80;99.90
71367;DHT22;60030;52.274;8.040;2023-03-14T09:08:59;11.80;99.90
71367;DHT22;60030;52.274;8.040;2023-03-14T09:11:27;11.90;99.90
71367;DHT22;60030;52.274;8.040;2023-03-14T09:13:54;11.80;99.90
71367;DHT22;60030;52.274;8.040;2023-03-14T09:16:21;11.90;99.90
71367;DHT22;60030;52.274;8.040;2023-03-14T09:18:48;11.70;99.90
71367;DHT22;60030;52.274;8.040;2023-03-14T09:21:16;11.60;99.90
71367;DHT22;60030;52.274;8.040;2023-03-14T09:23:43;11.60;99.90
71367;DHT22;60030;52.274;8.040;2023-03-14T09:26:11;11.40;99.90
71367;DHT22;60030;52.274;8.040;2023-03-14T09:28:38;11.10;99.90
71367;DHT22;60030;52.274;8.040;2023-03-14T09:31:06;11.20;99.90
71367;DHT22;60030;52.274;8.040;2023-03-14T09:33:34;11.20;99.90
71367;DHT22;60030;52.274;8.040;2023-03-14T09:36:01;11.20;99.90
71367;DHT22;60030;52.274;8.040;2023-03-14T09:38:30;11.10;99.90
71367;DHT22;60030;52.274;8.040;2023-03-14T09:41:00;11.10;99.90
71367;DHT22;60030;52.274;8.040;2023-03-14T09:43:30;11.10;99.90
71367;DHT22;60030;52.274;8.040;2023-03-14T09:45:59;11.00;99.90
71367;DHT22;60030;52.274;8.040;2023-03-14T09:48:30;10.80;99.90
71367;DHT22;60030;52.274;8.040;2023-03-14T09:51:01;10.40;99.90
71367;DHT22;60030;52.274;8.040;2023-03-14T09:53:37;10.40;99.90
71367;DHT22;60030;52.274;8.040;2023-03-14T09:56:10;10.50;99.90
71367;DHT22;60030;52.274;8.040;2023-03-14T09:58:41;10.50;99.90
71367;DHT22;60030;52.274;8.040;2023-03-14T10:01:11;10.60;99.90
71367;DHT22;60030;52.274;8.040;2023-03-14T10:03:41;10.50;99.90
71367;DHT22;60030;52.274;8.040;2023-03-14T10:06:11;10.10;99.90
71367;DHT22;60030;52.274;8.040;2023-03-14T10:08:41;10.10;99.90
71367;DHT22;60030;52.274;8.040;2023-03-14T10:11:14;9.80;99.90
71367;DHT22;60030;52.274;8.040;2023-03-14T10:13:49;9.60;99.90
71367;DHT22;60030;52.274;8.040;2023-03-14T10:16:17;9.50;99.90
71367;DHT22;60030;52.274;8.040;2023-03-14T10:18:45;9.70;99.90
71367;DHT22;60030;52.274;8.040;2023-03-14T10:21:20;9.40;99.90
71367;DHT22;60030;52.274;8.040;2023-03-14T10:23:49;9.50;99.90
71367;DHT22;60030;52.274;8.040;2023-03-14T10:26:18;9.20;99.90
71367;DHT22;60030;52.274;8.040;2023-03-14T10:28:47;9.00;99.90
71367;DHT22;60030;52.274;8.040;2023-03-14T10:31:15;9.00;99.90
71367;DHT22;60030;52.274;8.040;2023-03-14T10:33:42;9.00;99.90
71367;DHT22;60030;52.274;8.040;2023-03-14T10:36:26;8.60;99.90
71367;DHT22;60030;52.274;8.040;2023-03-14T10:39:16;8.90;99.90
71367;DHT22;60030;52.274;8.040;2023-03-14T10:41:50;8.80;99.90
71367;DHT22;60030;52.274;8.040;2023-03-14T10:44:22;8.50;99.90
71367;DHT22;60030;52.274;8.040;2023-03-14T10:46:56;8.20;99.90
71367;DHT22;60030;52.274;8.040;2023-03-14T10:49:28;8.10;99.90
71367;DHT22;60030;52.274;8.040;2023-03-14T10:51:55;7.90;99.90
71367;DHT22;60030;52.274;8.040;2023-03-14T10:54:23;7.80;99.90
71367;DHT22;60030;52.274;8.040;2023-03-14T10:56:57;7.50;99.90
71367;DHT22;60030;52.274;8.040;2023-03-14T10:59:24;7.50;99.90
71367;DHT22;60030;52.274;8.040;2023-03-14T11:01:58;7.80;99.90
71367;DHT22;60030;52.274;8.040;2023-03-14T11:04:45;7.90;99.90
71367;DHT22;60030;52.274;8.040;2023-03-14T11:07:19;8.00;99.90
71367;DHT22;60030;52.274;8.040;2023-03-14T11:09:56;8.20;99.90
71367;DHT22;60030;52.274;8.040;2023-03-14T11:12:39;8.20;99.90
71367;DHT22;60030;52.274;8.040;2023-03-14T11:15:17;8.50;99.90
71367;DHT22;60030;52.274;8.040;2023-03-14T11:17:56;8.30;99.90
71367;DHT22;60030;52.274;8.040;2023-03-14T11:20:35;8.40;99.90
71367;DHT22;60030;52.274;8.040;2023-03-14T11:23:08;8.40;99.90
71367;DHT22;60030;52.274;8.040;2023-03-14T11:25:44;8.50;99.90
71367;DHT22;60030;52.274;8.040;2023-03-14T11:28:18;8.50;99.90
71367;DHT22;60030;52.274;8.040;2023-03-14T11:30:51;8.80;99.90
71367;DHT22;60030;52.274;8.040;2023-03-14T11:33:23;8.70;99.90
71367;DHT22;60030;52.274;8.040;2023-03-14T11:35:57;8.90;99.90
71367;DHT22;60030;52.274;8.040;2023-03-14T11:38:30;8.70;99.90
71367;DHT22;60030;52.274;8.040;2023-03-14T11:41:01;9.00;99.90
71367;DHT22;60030;52.274;8.040;2023-03-14T11:43:33;9.10;99.90
71367;DHT22;60030;52.274;8.040;2023-03-14T11:46:07;9.10;99.90
71367;DHT22;60030;52.274;8.040;2023-03-14T11:48:40;8.80;99.90
71367;DHT22;60030;52.274;8.040;2023-03-14T11:51:14;9.10;99.90
71367;DHT22;60030;52.274;8.040;2023-03-14T11:53:50;9.00;99.90
71367;DHT22;60030;52.274;8.040;2023-03-14T11:56:26;9.20;99.90
71367;DHT22;60030;52.274;8.040;2023-03-14T11:58:58;8.60;99.90
71367;DHT22;60030;52.274;8.040;2023-03-14T12:01:48;8.80;99.90
71367;DHT22;60030;52.274;8.040;2023-03-14T12:04:25;8.70;99.90
71367;DHT22;60030;52.274;8.040;2023-03-14T12:07:01;8.80;99.90
71367;DHT22;60030;52.274;8.040;2023-03-14T12:09:30;9.70;99.90
71367;DHT22;60030;52.274;8.040;2023-03-14T12:12:01;10.20;99.90
71367;DHT22;60030;52.274;8.040;2023-03-14T12:14:31;10.90;99.90
71367;DHT22;60030;52.274;8.040;2023-03-14T12:17:04;11.40;99.90
71367;DHT22;60030;52.274;8.040;2023-03-14T12:19:33;10.90;99.90
71367;DHT22;60030;52.274;8.040;2023-03-14T12:22:16;10.60;99.90
71367;DHT22;60030;52.274;8.040;2023-03-14T12:24:49;10.20;99.90
71367;DHT22;60030;52.274;8.040;2023-03-14T12:30:27;8.70;99.90
71367;DHT22;60030;52.274;8.040;2023-03-14T12:33:25;8.80;99.90
71367;DHT22;60030;52.274;8.040;2023-03-14T12:35:58;9.20;99.90
71367;DHT22;60030;52.274;8.040;2023-03-14T12:38:32;9.00;99.90
71367;DHT22;60030;52.274;8.040;2023-03-14T12:41:14;9.20;99.90
71367;DHT22;60030;52.274;8.040;2023-03-14T12:43:41;9.50;99.90
71367;DHT22;60030;52.274;8.040;2023-03-14T12:46:24;9.80;99.90
71367;DHT22;60030;52.274;8.040;2023-03-14T12:48:56;9.60;99.90
71367;DHT22;60030;52.274;8.040;2023-03-14T12:51:34;9.30;99.90
71367;DHT22;60030;52.274;8.040;2023-03-14T12:54:28;9.70;99.90
71367;DHT22;60030;52.274;8.040;2023-03-14T12:57:10;9.60;99.90
71367;DHT22;60030;52.274;8.040;2023-03-14T12:59:46;9.50;99.90
71367;DHT22;60030;52.274;8.040;2023-03-14T13:02:22;9.60;99.90
71367;DHT22;60030;52.274;8.040;2023-03-14T13:04:52;9.10;99.90
71367;DHT22;60030;52.274;8.040;2023-03-14T13:07:35;9.00;99.90
71367;DHT22;60030;52.274;8.040;2023-03-14T13:10:16;9.00;99.90
71367;DHT22;60030;52.274;8.040;2023-03-14T13:12:48;8.90;99.90
71367;DHT22;60030;52.274;8.040;2023-03-14T13:15:24;8.60;99.90
71367;DHT22;60030;52.274;8.040;2023-03-14T13:17:54;8.50;99.90
71367;DHT22;60030;52.274;8.040;2023-03-14T13:20:27;9.10;99.90
71367;DHT22;60030;52.274;8.040;2023-03-14T13:22:55;9.40;99.90
71367;DHT22;60030;52.274;8.040;2023-03-14T13:25:22;9.70;99.90
71367;DHT22;60030;52.274;8.040;2023-03-14T13:27:51;10.10;99.90
71367;DHT22;60030;52.274;8.040;2023-03-14T13:30:22;10.60;99.90
71367;DHT22;60030;52.274;8.040;2023-03-14T13:32:52;10.10;99.90
71367;DHT22;60030;52.274;8.040;2023-03-14T13:35:22;9.80;99.90
71367;DHT22;60030;52.274;8.040;2023-03-14T13:37:55;9.80;99.90
71367;DHT22;60030;52.274;8.040;2023-03-14T13:40:30;9.10;99.90
71367;DHT22;60030;52.274;8.040;2023-03-14T13:43:14;9.40;99.90
71367;DHT22;60030;52.274;8.040;2023-03-14T13:45:45;9.80;99.90
71367;DHT22;60030;52.274;8.040;2023-03-14T13:48:16;10.10;99.90
71367;DHT22;60030;52.274;8.040;2023-03-14T13:50:51;10.80;98.80
71367;DHT22;60030;52.274;8.040;2023-03-14T13:53:20;12.80;95.70
71367;DHT22;60030;52.274;8.040;2023-03-14T13:55:47;12.50;86.10
71367;DHT22;60030;52.274;8.040;2023-03-14T13:58:30;12.70;85.70
71367;DHT22;60030;52.274;8.040;2023-03-14T14:01:14;11.20;88.60
71367;DHT22;60030;52.274;8.040;2023-03-14T14:03:45;10.80;90.00
71367;DHT22;60030;52.274;8.040;2023-03-14T14:06:22;10.50;89.90
71367;DHT22;60030;52.274;8.040;2023-03-14T14:08:50;10.80;90.80
71367;DHT22;60030;52.274;8.040;2023-03-14T14:11:22;10.70;92.00
71367;DHT22;60030;52.274;8.040;2023-03-14T14:13:54;10.60;91.90
71367;DHT22;60030;52.274;8.040;2023-03-14T14:16:24;10.10;92.60
71367;DHT22;60030;52.274;8.040;2023-03-14T14:18:54;10.10;92.70
71367;DHT22;60030;52.274;8.040;2023-03-14T14:21:23;10.00;93.20
71367;DHT22;60030;52.274;8.040;2023-03-14T14:23:50;9.80;91.00
71367;DHT22;60030;52.274;8.040;2023-03-14T14:26:19;9.70;90.40
71367;DHT22;60030;52.274;8.040;2023-03-14T14:28:59;10.00;89.00
71367;DHT22;60030;52.274;8.040;2023-03-14T14:31:26;10.10;89.70
71367;DHT22;60030;52.274;8.040;2023-03-14T14:33:57;9.80;89.70
71367;DHT22;60030;52.274;8.040;2023-03-14T14:36:28;10.20;85.60
71367;DHT22;60030;52.274;8.040;2023-03-14T14:39:03;10.60;82.70
71367;DHT22;60030;52.274;8.040;2023-03-14T14:41:33;11.20;78.70
71367;DHT22;60030;52.274;8.040;2023-03-14T14:44:04;11.90;75.30
71367;DHT22;60030;52.274;8.040;2023-03-14T14:46:33;12.60;74.90
71367;DHT22;60030;52.274;8.040;2023-03-14T14:49:06;11.60;74.30
71367;DHT22;60030;52.274;8.040;2023-03-14T14:51:41;11.10;76.10
71367;DHT22;60030;52.274;8.040;2023-03-14T14:54:14;11.50;75.10
71367;DHT22;60030;52.274;8.040;2023-03-14T14:56:47;11.60;74.40
71367;DHT22;60030;52.274;8.040;2023-03-14T14:59:22;10.60;75.70
71367;DHT22;60030;52.274;8.040;2023-03-14T15:01:50;10.30;78.80
71367;DHT22;60030;52.274;8.040;2023-03-14T15:04:23;11.20;78.70
71367;DHT22;60030;52.274;8.040;2023-03-14T15:06:50;11.50;76.60
71367;DHT22;60030;52.274;8.040;2023-03-14T15:09:19;11.20;77.50
71367;DHT22;60030;52.274;8.040;2023-03-14T15:11:46;11.20;78.50
71367;DHT22;60030;52.274;8.040;2023-03-14T15:14:14;10.90;80.00
71367;DHT22;60030;52.274;8.040;2023-03-14T15:16:41;10.70;78.50
71367;DHT22;60030;52.274;8.040;2023-03-14T15:19:12;10.30;81.10
71367;DHT22;60030;52.274;8.040;2023-03-14T15:21:41;10.00;82.90
71367;DHT22;60030;52.274;8.040;2023-03-14T15:24:09;10.70;81.60
71367;DHT22;60030;52.274;8.040;2023-03-14T15:26:37;10.10;82.50
71367;DHT22;60030;52.274;8.040;2023-03-14T15:29:04;10.00;84.00
71367;DHT22;60030;52.274;8.040;2023-03-14T15:31:34;9.80;83.30
71367;DHT22;60030;52.274;8.040;2023-03-14T15:34:01;9.60;83.50
71367;DHT22;60030;52.274;8.040;2023-03-14T15:36:30;9.60;83.40
71367;DHT22;60030;52.274;8.040;2023-03-14T15:39:00;9.80;84.80
71367;DHT22;60030;52.274;8.040;2023-03-14T15:41:27;9.70;85.90
71367;DHT22;60030;52.274;8.040;2023-03-14T15:43:55;9.90;87.30
71367;DHT22;60030;52.274;8.040;2023-03-14T15:46:22;10.40;87.90
71367;DHT22;60030;52.274;8.040;2023-03-14T15:48:50;10.20;89.40
71367;DHT22;60030;52.274;8.040;2023-03-14T15:51:18;9.80;90.10
71367;DHT22;60030;52.274;8.040;2023-03-14T15:53:45;9.60;90.90
71367;DHT22;60030;52.274;8.040;2023-03-14T15:56:15;9.30;91.60
71367;DHT22;60030;52.274;8.040;2023-03-14T15:58:43;9.10;93.30
71367;DHT22;60030;52.274;8.040;2023-03-14T16:01:12;9.20;93.70
71367;DHT22;60030;52.274;8.040;2023-03-14T16:03:39;9.20;94.00